Weather at Stavropol Shpakovskoye Airport

Public forecast

Using degrees Celsius for public forecast. Weather courtesy of forecast.io.

Current aviation weather report (METAR) for Stavropol Shpakovskoye Airport

Retrieved 2021/01/16 13:30 UTC (3 minutes ago):

URMT 161330Z 32004MPS 9999 BKN043 M01/M04 Q1014 R25/190060 NOSIG RMK QFE722

Aviation forecast (TAF) for Stavropol Shpakovskoye Airport

Forecast is more than 12 hours old.

Retrieved 2019/08/03 03:15 UTC (1 year ago):

TAF URMT 030200Z 0303/0321 31005G12MPS 9999 SCT020